Time;durP1;ratioP1;P1;durP2;ratioP2;P2;SDS_P1;SDS_P2;PMS_P1;PMS_P2;Temp;Humidity;BMP_temperature;BMP_pressure;BME280_temperature;BME280_humidity;BME280_pressure;Samples;Min_cycle;Max_cycle;Signal;HPM_P1;HPM_P2
2023/11/06 00:01:44;;;;;;;6.83;2.43;;;8.50;99.90;;;;;;450325;261;27969;-71
2023/11/06 00:03:44;;;;;;;13.77;2.90;;;8.50;99.90;;;;;;450309;261;27995;-71
2023/11/06 00:05:46;;;;;;;4.70;2.17;;;8.50;99.90;;;;;;450329;261;28446;-72
2023/11/06 00:07:47;;;;;;;8.03;2.20;;;8.50;99.90;;;;;;450303;261;28367;-72
2023/11/06 00:09:48;;;;;;;8.13;1.90;;;8.50;99.90;;;;;;450305;261;28345;-72
2023/11/06 00:11:49;;;;;;;6.97;2.10;;;8.50;99.90;;;;;;450294;261;29271;-72
2023/11/06 00:13:50;;;;;;;13.80;2.97;;;8.50;99.90;;;;;;450308;261;28548;-72
2023/11/06 00:15:52;;;;;;;6.57;2.47;;;8.50;99.90;;;;;;450314;261;27994;-71
2023/11/06 00:17:53;;;;;;;12.63;2.30;;;8.50;99.90;;;;;;450354;260;27780;-71
2023/11/06 00:19:54;;;;;;;7.00;2.50;;;8.50;99.90;;;;;;450347;261;28103;-72
2023/11/06 00:21:57;;;;;;;13.20;2.67;;;8.50;99.90;;;;;;450301;256;28234;-73
2023/11/06 00:23:57;;;;;;;8.87;2.80;;;8.50;99.90;;;;;;450166;264;28084;-71
2023/11/06 00:25:58;;;;;;;10.80;2.83;;;8.50;99.90;;;;;;450302;261;28018;-73
2023/11/06 00:27:59;;;;;;;16.13;2.27;;;8.50;99.90;;;;;;450317;261;27987;-71
2023/11/06 00:30:00;;;;;;;8.43;2.77;;;8.50;99.90;;;;;;450288;261;28004;-72
2023/11/06 00:32:03;;;;;;;10.03;4.77;;;8.50;99.90;;;;;;450396;261;27822;-73
2023/11/06 00:34:03;;;;;;;8.13;2.87;;;8.60;99.90;;;;;;450312;261;27666;-71
2023/11/06 00:36:04;;;;;;;8.50;2.30;;;8.50;99.90;;;;;;450315;256;28035;-71
2023/11/06 00:38:05;;;;;;;6.33;2.40;;;8.60;99.90;;;;;;450307;261;28421;-71
2023/11/06 00:40:07;;;;;;;10.93;2.23;;;8.60;99.90;;;;;;450327;261;28102;-72
2023/11/06 00:42:08;;;;;;;6.33;2.30;;;8.60;99.90;;;;;;450293;261;28481;-73
2023/11/06 00:44:09;;;;;;;10.17;3.00;;;8.60;99.90;;;;;;450317;261;28441;-71
2023/11/06 00:46:10;;;;;;;8.67;2.33;;;8.60;99.90;;;;;;450303;261;28033;-72
2023/11/06 00:48:12;;;;;;;16.17;2.10;;;8.60;99.90;;;;;;450309;261;27995;-72
2023/11/06 00:50:13;;;;;;;7.13;2.20;;;8.60;99.90;;;;;;450326;261;27755;-72
2023/11/06 00:52:14;;;;;;;7.00;2.27;;;8.60;99.90;;;;;;450302;261;28069;-73
2023/11/06 00:54:15;;;;;;;9.83;2.37;;;8.60;99.90;;;;;;450297;261;28022;-72
2023/11/06 00:56:17;;;;;;;9.20;2.43;;;8.60;99.90;;;;;;450319;261;28114;-72
2023/11/06 00:58:20;;;;;;;9.30;2.37;;;8.60;99.90;;;;;;450299;261;28593;-72
2023/11/06 01:00:24;;;;;;;8.87;2.30;;;8.60;99.90;;;;;;450277;261;27954;-72
2023/11/06 01:02:25;;;;;;;6.10;2.00;;;8.60;99.90;;;;;;450341;261;27942;-72
2023/11/06 01:04:26;;;;;;;4.10;1.93;;;8.60;99.90;;;;;;450340;261;28369;-73
2023/11/06 01:06:28;;;;;;;12.87;3.97;;;8.60;99.90;;;;;;450300;261;28479;-72
2023/11/06 01:08:29;;;;;;;8.17;2.17;;;8.60;99.90;;;;;;450306;261;28670;-72
2023/11/06 01:10:30;;;;;;;8.10;2.07;;;8.60;99.90;;;;;;450387;261;28173;-73
2023/11/06 01:12:31;;;;;;;4.50;2.40;;;8.60;99.90;;;;;;450302;261;27900;-72
2023/11/06 01:14:33;;;;;;;8.77;2.50;;;8.60;99.90;;;;;;450320;261;27896;-72
2023/11/06 01:16:34;;;;;;;7.83;2.30;;;8.60;99.90;;;;;;450379;261;27807;-72
2023/11/06 01:18:35;;;;;;;12.47;2.50;;;8.60;99.90;;;;;;450377;261;28053;-73
2023/11/06 01:20:36;;;;;;;13.40;2.37;;;8.60;99.90;;;;;;450345;261;28221;-74
2023/11/06 01:22:38;;;;;;;5.63;2.13;;;8.60;99.90;;;;;;450385;261;28087;-72
2023/11/06 01:24:40;;;;;;;11.83;2.90;;;8.60;99.90;;;;;;450368;261;27985;-71
2023/11/06 01:26:42;;;;;;;13.57;2.57;;;8.50;99.90;;;;;;450220;263;28051;-71
2023/11/06 01:28:41;;;;;;;9.87;2.60;;;8.50;99.90;;;;;;450236;264;28032;-71
2023/11/06 01:30:43;;;;;;;5.77;2.33;;;8.50;99.90;;;;;;450375;261;28017;-73
2023/11/06 01:32:44;;;;;;;5.63;2.33;;;8.50;99.90;;;;;;450360;261;28201;-72
2023/11/06 01:34:45;;;;;;;13.00;2.53;;;8.50;99.90;;;;;;450380;261;28444;-72
2023/11/06 01:36:47;;;;;;;4.27;2.07;;;8.50;99.90;;;;;;450288;261;29222;-71
2023/11/06 01:38:48;;;;;;;9.20;2.37;;;8.40;99.90;;;;;;450273;261;28446;-72
2023/11/06 01:40:49;;;;;;;10.03;2.50;;;8.40;99.90;;;;;;450301;261;28598;-72
2023/11/06 01:42:52;;;;;;;3.63;2.00;;;8.40;99.90;;;;;;450362;261;27843;-72
2023/11/06 01:44:51;;;;;;;5.13;2.00;;;8.40;99.90;;;;;;450291;264;28073;-72
2023/11/06 01:46:53;;;;;;;11.53;2.60;;;8.40;99.90;;;;;;450243;264;28069;-71
2023/11/06 01:48:54;;;;;;;4.60;1.70;;;8.30;99.90;;;;;;450366;261;28156;-71
2023/11/06 01:50:55;;;;;;;11.90;2.40;;;8.40;99.90;;;;;;450383;261;27882;-72
2023/11/06 01:52:56;;;;;;;9.57;2.70;;;8.40;99.90;;;;;;450394;261;27837;-71
2023/11/06 01:54:58;;;;;;;6.13;2.47;;;8.30;99.90;;;;;;450347;261;28096;-72
2023/11/06 01:56:59;;;;;;;7.83;1.90;;;8.40;99.90;;;;;;450360;261;28473;-72
2023/11/06 01:59:01;;;;;;;8.90;2.00;;;8.30;99.90;;;;;;450345;261;27950;-72
2023/11/06 02:01:04;;;;;;;4.07;1.83;;;8.40;99.90;;;;;;450286;261;27989;-72
2023/11/06 02:03:03;;;;;;;5.30;1.80;;;8.40;99.90;;;;;;450159;264;27956;-71
2023/11/06 02:05:04;;;;;;;5.43;1.90;;;8.40;99.90;;;;;;450368;261;28085;-71
2023/11/06 02:07:05;;;;;;;9.23;2.07;;;8.40;99.90;;;;;;450365;261;27982;-71
2023/11/06 02:09:07;;;;;;;5.93;2.57;;;8.30;99.90;;;;;;450374;261;28437;-71
2023/11/06 02:11:08;;;;;;;5.30;1.67;;;8.30;99.90;;;;;;450310;261;28515;-71
2023/11/06 02:13:09;;;;;;;7.63;2.13;;;8.30;99.90;;;;;;450133;264;28141;-71
2023/11/06 02:15:10;;;;;;;5.40;1.97;;;8.30;99.90;;;;;;450321;261;28577;-71
2023/11/06 02:17:11;;;;;;;5.80;1.90;;;8.30;99.90;;;;;;450322;261;28564;-73
2023/11/06 02:19:13;;;;;;;4.27;2.07;;;8.30;99.90;;;;;;450373;261;28050;-71
2023/11/06 02:21:14;;;;;;;9.00;1.83;;;8.30;99.90;;;;;;450376;261;27981;-72
2023/11/06 02:23:15;;;;;;;5.60;2.40;;;8.30;99.90;;;;;;450370;261;27936;-72
2023/11/06 02:25:16;;;;;;;7.60;2.10;;;8.30;99.90;;;;;;450382;261;27972;-72
2023/11/06 02:27:18;;;;;;;6.80;2.33;;;8.30;99.90;;;;;;450374;261;28012;-72
2023/11/06 02:29:19;;;;;;;5.47;2.00;;;8.30;99.90;;;;;;450370;261;27964;-71
2023/11/06 02:31:20;;;;;;;11.33;2.77;;;8.30;99.90;;;;;;450395;261;28227;-71
2023/11/06 02:33:21;;;;;;;5.70;2.10;;;8.30;99.90;;;;;;450375;261;28409;-74
2023/11/06 02:35:23;;;;;;;5.10;1.97;;;8.30;99.90;;;;;;450351;261;28056;-71
2023/11/06 02:37:24;;;;;;;5.17;1.93;;;8.30;99.90;;;;;;450372;261;28004;-71
2023/11/06 02:39:25;;;;;;;10.43;2.90;;;8.30;99.90;;;;;;450334;261;28190;-71
2023/11/06 02:41:26;;;;;;;2.33;1.50;;;8.30;99.90;;;;;;450351;261;28009;-72
2023/11/06 02:43:28;;;;;;;10.97;3.60;;;8.30;99.90;;;;;;450375;261;28102;-72
2023/11/06 02:45:29;;;;;;;5.70;2.13;;;8.30;99.90;;;;;;450346;261;28467;-72
2023/11/06 02:47:30;;;;;;;5.90;2.90;;;8.30;99.90;;;;;;450319;261;28469;-72
2023/11/06 02:49:31;;;;;;;5.37;1.97;;;8.20;99.90;;;;;;450325;261;28953;-71
2023/11/06 02:51:33;;;;;;;6.37;2.03;;;8.30;99.90;;;;;;450355;261;28475;-71
2023/11/06 02:53:34;;;;;;;5.57;2.50;;;8.30;99.90;;;;;;450343;261;28583;-72
2023/11/06 02:55:35;;;;;;;10.37;3.20;;;8.30;99.90;;;;;;450342;261;27843;-71
2023/11/06 02:57:36;;;;;;;5.00;4.50;;;8.30;99.90;;;;;;450403;261;28093;-72
2023/11/06 02:59:38;;;;;;;7.80;2.50;;;8.30;99.90;;;;;;450405;261;27952;-71
2023/11/06 03:01:40;;;;;;;7.40;3.30;;;8.30;99.90;;;;;;450396;261;27461;-72
2023/11/06 03:03:40;;;;;;;3.10;2.03;;;8.30;99.90;;;;;;450256;264;27936;-71
2023/11/06 03:05:41;;;;;;;4.10;1.70;;;8.30;99.90;;;;;;450352;261;27856;-71
2023/11/06 03:07:43;;;;;;;4.10;1.80;;;8.30;99.90;;;;;;450348;261;28236;-72
2023/11/06 03:09:45;;;;;;;5.53;2.10;;;8.30;99.90;;;;;;450348;261;28327;-72
2023/11/06 03:11:45;;;;;;;5.93;1.67;;;8.30;99.90;;;;;;450285;264;27940;-71
2023/11/06 03:13:47;;;;;;;6.70;1.93;;;8.30;99.90;;;;;;450359;261;28107;-71
2023/11/06 03:15:47;;;;;;;7.40;2.00;;;8.30;99.90;;;;;;450290;264;28479;-71
2023/11/06 03:17:49;;;;;;;5.10;1.77;;;8.30;99.90;;;;;;450313;261;28001;-72
2023/11/06 03:19:50;;;;;;;4.77;2.10;;;8.30;99.90;;;;;;450331;261;28020;-73
2023/11/06 03:21:51;;;;;;;10.40;2.07;;;8.30;99.90;;;;;;450347;261;28484;-71
2023/11/06 03:23:52;;;;;;;6.57;2.00;;;8.30;99.90;;;;;;450394;261;28492;-71
2023/11/06 03:25:54;;;;;;;6.33;2.20;;;8.30;99.90;;;;;;450337;261;28436;-71
2023/11/06 03:27:55;;;;;;;10.87;2.20;;;8.30;99.90;;;;;;450346;261;28513;-72
2023/11/06 03:29:56;;;;;;;8.07;2.00;;;8.30;99.90;;;;;;450362;261;27995;-73
2023/11/06 03:31:57;;;;;;;6.00;2.13;;;8.40;99.90;;;;;;450337;261;27867;-71
2023/11/06 03:33:59;;;;;;;6.40;2.00;;;8.40;99.90;;;;;;450331;261;28029;-72
2023/11/06 03:36:00;;;;;;;4.30;1.73;;;8.30;99.90;;;;;;450334;261;28162;-72
2023/11/06 03:38:01;;;;;;;4.10;1.73;;;8.30;99.90;;;;;;450343;261;28131;-71
2023/11/06 03:40:03;;;;;;;9.83;1.93;;;8.30;99.90;;;;;;450343;261;28065;-72
2023/11/06 03:42:04;;;;;;;6.47;2.17;;;8.30;99.90;;;;;;450427;261;27997;-71
2023/11/06 03:44:05;;;;;;;4.50;2.07;;;8.30;99.90;;;;;;450413;261;27615;-72
2023/11/06 03:46:06;;;;;;;6.47;2.57;;;8.30;99.90;;;;;;450414;261;27872;-71
2023/11/06 03:48:07;;;;;;;12.07;3.00;;;8.40;99.90;;;;;;450422;261;27840;-71
2023/11/06 03:50:09;;;;;;;10.30;2.13;;;8.30;99.90;;;;;;450413;261;28018;-71
2023/11/06 03:52:11;;;;;;;8.77;1.87;;;8.30;99.90;;;;;;450399;261;27959;-72
2023/11/06 03:54:11;;;;;;;3.90;1.70;;;8.40;99.90;;;;;;450172;264;27965;-72
2023/11/06 03:56:12;;;;;;;10.30;2.27;;;8.40;99.90;;;;;;450375;261;28557;-73
2023/11/06 03:58:14;;;;;;;11.90;2.73;;;8.30;99.90;;;;;;450364;261;28053;-71
2023/11/06 04:00:15;;;;;;;11.07;2.70;;;8.40;99.90;;;;;;450370;261;28661;-71
2023/11/06 04:02:17;;;;;;;8.20;2.80;;;8.40;99.90;;;;;;450350;261;27716;-71
2023/11/06 04:04:17;;;;;;;6.47;2.10;;;8.40;99.90;;;;;;450296;261;27676;-71
2023/11/06 04:06:19;;;;;;;3.43;1.83;;;8.40;99.90;;;;;;450295;261;28011;-73
2023/11/06 04:08:21;;;;;;;8.77;2.43;;;8.40;99.90;;;;;;450305;261;27947;-71
2023/11/06 04:10:21;;;;;;;9.20;2.53;;;8.40;99.90;;;;;;450288;261;27867;-71
2023/11/06 04:12:22;;;;;;;10.07;2.70;;;8.40;99.90;;;;;;450309;261;27646;-71
2023/11/06 04:14:24;;;;;;;8.93;3.20;;;8.40;99.90;;;;;;450289;261;28103;-72
2023/11/06 04:16:25;;;;;;;9.33;2.33;;;8.40;99.90;;;;;;450290;261;28140;-71
2023/11/06 04:18:26;;;;;;;5.30;2.00;;;8.40;99.90;;;;;;450324;261;27971;-72
2023/11/06 04:20:27;;;;;;;13.37;2.93;;;8.40;99.90;;;;;;450237;261;28029;-72
2023/11/06 04:22:29;;;;;;;15.80;2.63;;;8.40;99.90;;;;;;450211;263;28062;-72
2023/11/06 04:24:30;;;;;;;10.10;3.70;;;8.40;99.90;;;;;;450341;261;28043;-71
2023/11/06 04:26:31;;;;;;;8.67;2.70;;;8.40;99.90;;;;;;450365;261;28090;-72
2023/11/06 04:28:32;;;;;;;21.43;3.40;;;8.40;99.90;;;;;;450293;260;28541;-71
2023/11/06 04:30:34;;;;;;;7.40;2.37;;;8.40;99.90;;;;;;450334;261;28474;-72
2023/11/06 04:32:35;;;;;;;7.47;2.10;;;8.40;99.90;;;;;;450314;261;28426;-73
2023/11/06 04:34:36;;;;;;;5.77;2.43;;;8.40;99.90;;;;;;450313;261;28005;-71
2023/11/06 04:36:37;;;;;;;12.57;2.80;;;8.40;99.90;;;;;;450365;261;28029;-71
2023/11/06 04:38:39;;;;;;;11.00;3.20;;;8.40;99.90;;;;;;450299;261;27995;-71
2023/11/06 04:40:40;;;;;;;11.57;2.80;;;8.30;99.90;;;;;;450367;261;27860;-72
2023/11/06 04:42:41;;;;;;;9.37;3.33;;;8.30;99.90;;;;;;450374;261;28091;-73
2023/11/06 04:44:42;;;;;;;7.17;2.40;;;8.40;99.90;;;;;;450377;261;27966;-72
2023/11/06 04:46:44;;;;;;;6.07;2.67;;;8.40;99.90;;;;;;450358;261;27849;-72
2023/11/06 04:48:45;;;;;;;4.70;2.07;;;8.40;99.90;;;;;;450370;261;28126;-72
2023/11/06 04:50:46;;;;;;;8.23;2.80;;;8.40;99.90;;;;;;450327;256;28052;-71
2023/11/06 04:52:47;;;;;;;8.43;3.37;;;8.40;99.90;;;;;;450391;261;28031;-72
2023/11/06 04:54:49;;;;;;;9.50;2.80;;;8.40;99.90;;;;;;450355;264;27872;-71
2023/11/06 04:56:51;;;;;;;10.43;3.50;;;8.30;99.90;;;;;;450335;256;28078;-71
2023/11/06 04:58:52;;;;;;;7.93;2.60;;;8.30;99.90;;;;;;450382;261;28008;-71
2023/11/06 05:00:53;;;;;;;9.93;3.30;;;8.30;99.90;;;;;;450320;261;28011;-72
2023/11/06 05:02:55;;;;;;;8.60;2.90;;;8.30;99.90;;;;;;450309;261;27839;-72
2023/11/06 05:04:56;;;;;;;6.97;2.77;;;8.30;99.90;;;;;;450308;261;28474;-72
2023/11/06 05:06:58;;;;;;;11.70;3.40;;;8.30;99.90;;;;;;450358;261;29310;-71
2023/11/06 05:08:58;;;;;;;9.73;2.97;;;8.30;99.90;;;;;;450347;261;28631;-72
2023/11/06 05:11:00;;;;;;;9.03;2.67;;;8.30;99.90;;;;;;450340;261;28637;-72
2023/11/06 05:13:01;;;;;;;8.53;2.77;;;8.30;99.90;;;;;;450332;261;27609;-72
2023/11/06 05:15:03;;;;;;;8.53;3.60;;;8.30;99.90;;;;;;450334;261;28014;-72
2023/11/06 05:17:05;;;;;;;12.07;2.90;;;8.30;99.90;;;;;;450283;261;28129;-72
2023/11/06 05:19:07;;;;;;;4.70;3.07;;;8.30;99.90;;;;;;450315;264;27964;-71
2023/11/06 05:21:09;;;;;;;13.57;3.10;;;8.30;99.90;;;;;;450321;261;28041;-71
2023/11/06 05:23:10;;;;;;;5.50;2.40;;;8.30;99.90;;;;;;450345;261;27730;-72
2023/11/06 05:25:11;;;;;;;9.30;2.90;;;8.30;99.90;;;;;;450346;261;27861;-72
2023/11/06 05:27:12;;;;;;;8.83;3.40;;;8.30;99.90;;;;;;450323;261;28638;-72
2023/11/06 05:29:14;;;;;;;5.10;2.90;;;8.30;99.90;;;;;;450351;261;29059;-71
2023/11/06 05:31:15;;;;;;;11.67;3.40;;;8.30;99.90;;;;;;450315;264;28505;-71
2023/11/06 05:33:17;;;;;;;7.93;2.43;;;8.30;99.90;;;;;;450328;261;28446;-72
2023/11/06 05:35:18;;;;;;;6.07;2.80;;;8.30;99.90;;;;;;450346;261;27517;-72
2023/11/06 05:37:21;;;;;;;7.23;2.73;;;8.30;99.90;;;;;;450200;264;28532;-72
2023/11/06 05:39:21;;;;;;;11.60;3.00;;;8.30;99.90;;;;;;450386;261;28397;-72
2023/11/06 05:41:24;;;;;;;5.23;2.70;;;8.30;99.90;;;;;;450376;261;28007;-71
2023/11/06 05:43:24;;;;;;;4.53;2.10;;;8.30;99.90;;;;;;450278;261;28086;-72
2023/11/06 05:45:25;;;;;;;9.70;2.40;;;8.30;99.90;;;;;;450323;261;27546;-72
2023/11/06 05:47:26;;;;;;;11.57;2.47;;;8.20;99.90;;;;;;450333;256;28065;-72
2023/11/06 05:49:28;;;;;;;11.70;2.67;;;8.30;99.90;;;;;;450323;261;28045;-72
2023/11/06 05:51:29;;;;;;;10.73;2.90;;;8.30;99.90;;;;;;450338;261;27708;-72
2023/11/06 05:53:30;;;;;;;7.07;2.80;;;8.30;99.90;;;;;;450340;261;28032;-72
2023/11/06 05:55:31;;;;;;;11.93;3.13;;;8.30;99.90;;;;;;450308;261;27917;-71
2023/11/06 05:57:33;;;;;;;5.60;3.23;;;8.30;99.90;;;;;;450316;261;28000;-71
2023/11/06 05:59:34;;;;;;;13.97;4.33;;;8.20;99.90;;;;;;450282;261;27966;-72
2023/11/06 06:01:35;;;;;;;8.50;3.00;;;8.30;99.90;;;;;;450329;261;28000;-72
2023/11/06 06:03:36;;;;;;;12.93;2.80;;;8.30;99.90;;;;;;450333;261;28397;-71
2023/11/06 06:05:38;;;;;;;7.27;2.60;;;8.30;99.90;;;;;;450288;256;28403;-71
2023/11/06 06:07:39;;;;;;;7.33;3.07;;;8.20;99.90;;;;;;450325;261;28449;-71
2023/11/06 06:09:41;;;;;;;13.53;2.87;;;8.30;99.90;;;;;;450342;261;28551;-72
2023/11/06 06:11:43;;;;;;;7.10;2.30;;;8.20;99.90;;;;;;450284;264;27928;-72
2023/11/06 06:13:45;;;;;;;8.53;2.20;;;8.30;99.90;;;;;;450202;264;28072;-72
2023/11/06 06:15:44;;;;;;;6.80;2.50;;;8.30;99.90;;;;;;450160;264;27721;-71
2023/11/06 06:17:45;;;;;;;10.17;2.33;;;8.30;99.90;;;;;;450299;261;27824;-72
2023/11/06 06:19:46;;;;;;;6.87;2.20;;;8.30;99.90;;;;;;450342;261;28230;-73
2023/11/06 06:21:48;;;;;;;10.40;2.27;;;8.20;99.90;;;;;;450304;261;27909;-72
2023/11/06 06:23:49;;;;;;;10.50;2.70;;;8.30;99.90;;;;;;450324;261;28020;-72
2023/11/06 06:25:50;;;;;;;7.83;2.30;;;8.30;99.90;;;;;;450381;261;27886;-71
2023/11/06 06:27:51;;;;;;;9.27;2.30;;;8.30;99.90;;;;;;450373;261;27592;-72
2023/11/06 06:29:53;;;;;;;10.50;2.60;;;8.30;99.90;;;;;;450384;261;28013;-72
2023/11/06 06:31:54;;;;;;;9.03;2.43;;;8.30;99.90;;;;;;450331;261;27825;-72
2023/11/06 06:33:55;;;;;;;8.63;2.40;;;8.20;99.90;;;;;;450287;261;28055;-72
2023/11/06 06:35:56;;;;;;;10.90;2.20;;;8.30;99.90;;;;;;450312;261;28280;-72
2023/11/06 06:37:58;;;;;;;13.40;2.57;;;8.20;99.90;;;;;;450330;261;28510;-72
2023/11/06 06:39:59;;;;;;;8.77;2.20;;;8.30;99.90;;;;;;450329;261;28452;-72
2023/11/06 06:42:00;;;;;;;12.50;3.30;;;8.30;99.90;;;;;;450327;261;28357;-71
2023/11/06 06:44:01;;;;;;;5.57;2.40;;;8.20;99.90;;;;;;450313;261;28147;-72
2023/11/06 06:46:03;;;;;;;4.10;2.00;;;8.30;99.90;;;;;;450395;261;28093;-73
2023/11/06 06:48:04;;;;;;;12.93;2.57;;;8.30;99.90;;;;;;450396;261;27839;-71
2023/11/06 06:50:05;;;;;;;10.77;2.60;;;8.30;99.90;;;;;;450346;255;27995;-72
2023/11/06 06:52:06;;;;;;;5.77;1.63;;;8.30;99.90;;;;;;450322;261;27837;-71
2023/11/06 06:54:08;;;;;;;6.50;2.03;;;8.30;99.90;;;;;;450404;261;28050;-72
2023/11/06 06:56:09;;;;;;;6.00;2.00;;;8.30;99.90;;;;;;450364;264;27996;-72
2023/11/06 06:58:10;;;;;;;10.70;2.37;;;8.30;99.90;;;;;;450377;261;27984;-71
2023/11/06 07:00:13;;;;;;;7.60;2.00;;;8.30;99.90;;;;;;450340;261;28009;-72
2023/11/06 07:02:13;;;;;;;7.13;1.80;;;8.30;99.90;;;;;;450170;264;27881;-72
2023/11/06 07:04:14;;;;;;;10.00;2.10;;;8.30;99.90;;;;;;450314;261;28025;-71
2023/11/06 07:06:15;;;;;;;7.53;2.00;;;8.30;99.90;;;;;;450346;261;28357;-71
2023/11/06 07:08:16;;;;;;;14.80;2.40;;;8.30;99.90;;;;;;450299;261;28289;-72
2023/11/06 07:10:18;;;;;;;8.47;2.27;;;8.30;99.90;;;;;;450383;261;28549;-71
2023/11/06 07:12:19;;;;;;;11.23;2.50;;;8.30;99.90;;;;;;450388;261;28638;-72
2023/11/06 07:14:20;;;;;;;7.73;2.13;;;8.30;99.90;;;;;;450381;261;28087;-72
2023/11/06 07:16:21;;;;;;;8.17;2.20;;;8.30;99.90;;;;;;450296;264;28003;-71
2023/11/06 07:18:23;;;;;;;4.57;2.23;;;8.30;99.90;;;;;;450302;261;27785;-71
2023/11/06 07:20:24;;;;;;;3.37;1.70;;;8.30;99.90;;;;;;450315;261;27950;-72
2023/11/06 07:22:25;;;;;;;6.30;2.00;;;8.30;99.90;;;;;;450312;261;27990;-72
2023/11/06 07:24:27;;;;;;;7.57;2.03;;;8.40;99.90;;;;;;450370;261;27934;-71
2023/11/06 07:26:28;;;;;;;10.03;2.10;;;8.40;99.90;;;;;;450323;261;27890;-72
2023/11/06 07:28:29;;;;;;;12.67;2.07;;;8.40;99.90;;;;;;450370;261;27943;-72
2023/11/06 07:30:31;;;;;;;8.77;1.80;;;8.50;99.90;;;;;;450456;261;28012;-72
2023/11/06 07:32:32;;;;;;;4.33;1.87;;;8.50;99.90;;;;;;450113;264;27849;-72
2023/11/06 07:34:33;;;;;;;9.47;2.20;;;8.50;99.90;;;;;;450327;261;28011;-72
2023/11/06 07:36:35;;;;;;;5.73;2.03;;;8.50;99.90;;;;;;450314;261;28163;-72
2023/11/06 07:38:36;;;;;;;7.67;1.97;;;8.50;99.90;;;;;;450365;256;28351;-72
2023/11/06 07:40:38;;;;;;;6.70;1.93;;;8.50;99.90;;;;;;450351;261;29072;-71
2023/11/06 07:42:38;;;;;;;10.17;2.30;;;8.50;99.90;;;;;;450322;264;28420;-72
2023/11/06 07:44:41;;;;;;;6.50;2.40;;;8.40;99.90;;;;;;450395;261;28479;-72
2023/11/06 07:46:41;;;;;;;4.57;1.70;;;8.40;99.90;;;;;;450346;261;28078;-72
2023/11/06 07:48:42;;;;;;;5.83;1.80;;;8.40;99.90;;;;;;450291;261;28071;-72
2023/11/06 07:50:43;;;;;;;5.90;1.90;;;8.40;99.90;;;;;;450311;261;27938;-72
2023/11/06 07:52:45;;;;;;;8.33;1.97;;;8.40;99.90;;;;;;450399;261;27959;-72
2023/11/06 07:54:46;;;;;;;13.60;2.10;;;8.40;99.90;;;;;;450382;261;28088;-72
2023/11/06 07:56:48;;;;;;;7.60;1.93;;;8.50;99.90;;;;;;450343;261;27715;-71
2023/11/06 07:58:49;;;;;;;5.80;1.97;;;8.50;99.90;;;;;;450239;264;27992;-72
2023/11/06 08:00:50;;;;;;;9.10;1.80;;;8.50;99.90;;;;;;450384;261;27979;-72
2023/11/06 08:02:51;;;;;;;7.00;1.83;;;8.50;99.90;;;;;;450337;261;27876;-72
2023/11/06 08:04:52;;;;;;;6.97;2.03;;;8.50;99.90;;;;;;450326;261;27649;-73
2023/11/06 08:06:53;;;;;;;4.47;1.60;;;8.50;99.90;;;;;;450310;261;28053;-72
2023/11/06 08:08:55;;;;;;;9.23;1.93;;;8.60;99.90;;;;;;450343;261;28117;-71
2023/11/06 08:10:56;;;;;;;8.73;2.00;;;8.60;99.90;;;;;;450360;261;27812;-74
2023/11/06 08:12:59;;;;;;;6.17;1.80;;;8.60;99.90;;;;;;450382;261;28008;-71
2023/11/06 08:14:58;;;;;;;5.40;1.63;;;8.60;99.90;;;;;;450180;264;28594;-73
2023/11/06 08:17:00;;;;;;;5.07;1.73;;;8.60;99.90;;;;;;450355;261;29294;-72
2023/11/06 08:19:01;;;;;;;3.47;1.50;;;8.70;99.90;;;;;;450364;261;28565;-72
2023/11/06 08:21:02;;;;;;;4.87;1.57;;;8.80;99.90;;;;;;450382;261;28566;-72
2023/11/06 08:23:03;;;;;;;9.83;1.67;;;8.80;99.90;;;;;;450380;261;28604;-72
2023/11/06 08:25:05;;;;;;;8.93;2.13;;;8.80;99.90;;;;;;450390;261;27882;-73
2023/11/06 08:27:06;;;;;;;8.30;2.07;;;8.80;99.90;;;;;;450346;261;27984;-72
2023/11/06 08:29:07;;;;;;;10.13;1.90;;;8.80;99.90;;;;;;450375;261;27839;-71
2023/11/06 08:31:09;;;;;;;3.50;1.57;;;8.80;99.90;;;;;;450382;261;28008;-72
2023/11/06 08:33:10;;;;;;;5.30;1.73;;;8.90;99.90;;;;;;450351;261;27969;-72
2023/11/06 08:35:11;;;;;;;7.00;1.80;;;8.90;99.90;;;;;;450368;261;28000;-72
2023/11/06 08:37:14;;;;;;;7.33;2.37;;;8.90;99.90;;;;;;450306;261;28275;-73
2023/11/06 08:39:17;;;;;;;3.30;1.60;;;8.90;99.90;;;;;;450309;261;27768;-72
2023/11/06 08:41:16;;;;;;;4.83;1.77;;;8.90;99.90;;;;;;450260;261;27909;-73
2023/11/06 08:43:18;;;;;;;5.77;1.50;;;8.90;99.90;;;;;;450347;261;27946;-72
2023/11/06 08:45:19;;;;;;;4.07;1.87;;;9.00;99.90;;;;;;450326;261;27965;-72
2023/11/06 08:47:20;;;;;;;8.93;2.00;;;9.00;99.90;;;;;;450334;261;29125;-72
2023/11/06 08:49:21;;;;;;;5.10;2.00;;;9.10;99.90;;;;;;450336;261;28497;-72
2023/11/06 08:51:23;;;;;;;7.53;1.70;;;9.10;99.90;;;;;;450319;261;28658;-73
2023/11/06 08:53:26;;;;;;;5.50;1.77;;;9.10;99.90;;;;;;450384;261;28629;-71
2023/11/06 08:55:27;;;;;;;6.57;2.03;;;9.20;99.90;;;;;;450351;261;27971;-72
2023/11/06 08:57:29;;;;;;;7.53;2.03;;;9.30;99.90;;;;;;450379;261;28020;-72
2023/11/06 08:59:30;;;;;;;5.40;1.80;;;9.20;99.90;;;;;;450353;261;28042;-71
2023/11/06 09:01:31;;;;;;;10.37;1.63;;;9.30;99.90;;;;;;450381;261;28428;-72
2023/11/06 09:03:32;;;;;;;4.00;1.73;;;9.30;99.90;;;;;;450379;261;29235;-72
2023/11/06 09:05:34;;;;;;;7.13;1.90;;;9.40;99.90;;;;;;450401;261;28520;-71
2023/11/06 09:07:35;;;;;;;4.00;1.47;;;9.40;99.90;;;;;;450400;261;28569;-73
2023/11/06 09:09:36;;;;;;;6.73;1.80;;;9.30;99.90;;;;;;450410;261;28062;-72
2023/11/06 09:11:38;;;;;;;3.83;1.67;;;9.40;99.90;;;;;;450329;261;27952;-72
2023/11/06 09:13:39;;;;;;;5.80;1.70;;;9.40;99.90;;;;;;450334;261;28000;-73
2023/11/06 09:15:40;;;;;;;4.23;1.87;;;9.40;99.90;;;;;;450350;261;27947;-72
2023/11/06 09:17:41;;;;;;;6.23;1.83;;;9.40;99.90;;;;;;450331;261;27982;-72
2023/11/06 09:19:42;;;;;;;8.80;1.87;;;9.40;99.90;;;;;;450318;261;27956;-72
2023/11/06 09:21:44;;;;;;;5.20;1.73;;;9.40;99.90;;;;;;450368;256;27750;-72
2023/11/06 09:23:45;;;;;;;3.90;1.47;;;9.40;99.90;;;;;;450334;261;27892;-73
2023/11/06 09:25:46;;;;;;;7.80;2.30;;;9.40;99.90;;;;;;450325;261;27979;-72
2023/11/06 09:27:47;;;;;;;4.07;1.60;;;9.40;99.90;;;;;;450325;261;27940;-72
2023/11/06 09:29:49;;;;;;;8.30;2.00;;;9.40;99.90;;;;;;450341;261;28054;-71
2023/11/06 09:31:50;;;;;;;5.13;1.50;;;9.40;99.90;;;;;;450347;261;28004;-72
2023/11/06 09:33:51;;;;;;;4.53;1.83;;;9.60;99.90;;;;;;450330;261;27987;-73
2023/11/06 09:35:52;;;;;;;10.07;1.40;;;9.50;99.90;;;;;;450325;261;27470;-72
2023/11/06 09:37:54;;;;;;;6.43;2.00;;;9.50;99.90;;;;;;450330;261;28312;-72
2023/11/06 09:39:55;;;;;;;6.53;1.40;;;9.60;99.90;;;;;;450311;261;29279;-72
2023/11/06 09:41:56;;;;;;;4.40;1.40;;;9.70;99.90;;;;;;450339;261;28444;-72
2023/11/06 09:43:57;;;;;;;7.30;1.70;;;9.80;99.90;;;;;;450244;264;28296;-72
2023/11/06 09:45:59;;;;;;;2.80;1.70;;;9.80;99.90;;;;;;450312;261;28587;-72
2023/11/06 09:48:00;;;;;;;6.50;1.63;;;9.80;99.90;;;;;;450325;261;28017;-71
2023/11/06 09:50:01;;;;;;;4.63;1.77;;;9.70;99.90;;;;;;450390;261;28023;-72
2023/11/06 09:52:03;;;;;;;5.30;1.77;;;9.70;99.90;;;;;;450411;261;28021;-72
2023/11/06 09:54:10;;;;;;;2.93;1.50;;;9.80;99.90;;;;;;450214;264;28062;-72
2023/11/06 09:56:08;;;;;;;5.50;1.47;;;9.80;99.90;;;;;;450093;264;28036;-71
2023/11/06 09:58:09;;;;;;;2.87;1.30;;;9.90;99.90;;;;;;450344;261;28021;-72
2023/11/06 10:00:10;;;;;;;3.23;1.37;;;9.90;99.90;;;;;;450349;261;27743;-72
2023/11/06 10:02:11;;;;;;;4.00;1.53;;;9.90;99.90;;;;;;450368;261;28072;-72
2023/11/06 10:04:12;;;;;;;5.17;1.70;;;9.90;99.90;;;;;;450373;261;27966;-72
2023/11/06 10:06:14;;;;;;;3.67;1.40;;;9.90;99.90;;;;;;450356;261;27996;-72
2023/11/06 10:08:15;;;;;;;8.40;1.40;;;9.90;99.90;;;;;;450348;261;27985;-72
2023/11/06 10:10:16;;;;;;;5.17;1.53;;;9.90;99.90;;;;;;450317;261;28016;-72
2023/11/06 10:12:18;;;;;;;2.20;1.50;;;9.90;99.90;;;;;;450330;261;28361;-73
2023/11/06 10:14:19;;;;;;;3.83;1.10;;;10.00;99.90;;;;;;450339;261;28080;-71
2023/11/06 10:16:23;;;;;;;6.17;1.50;;;10.00;99.90;;;;;;450372;261;27877;-72
2023/11/06 10:18:21;;;;;;;3.60;1.37;;;10.10;99.90;;;;;;449927;261;27869;-72
2023/11/06 10:20:23;;;;;;;3.23;1.40;;;10.10;99.90;;;;;;450378;261;28390;-72
2023/11/06 10:22:24;;;;;;;2.20;1.40;;;10.00;99.90;;;;;;450318;261;28580;-72
2023/11/06 10:24:25;;;;;;;3.90;1.30;;;10.10;99.90;;;;;;450364;261;28490;-72
2023/11/06 10:26:27;;;;;;;2.57;1.37;;;10.30;99.90;;;;;;450380;261;27869;-71
2023/11/06 10:28:28;;;;;;;2.87;1.47;;;10.40;99.90;;;;;;450154;264;27834;-72
2023/11/06 10:30:29;;;;;;;2.53;1.40;;;10.30;99.90;;;;;;450359;261;28037;-72
2023/11/06 10:32:30;;;;;;;3.03;1.30;;;10.30;99.90;;;;;;450347;261;27755;-73
2023/11/06 10:34:33;;;;;;;6.20;1.70;;;10.40;99.90;;;;;;450335;261;27862;-71
2023/11/06 10:36:32;;;;;;;3.00;1.57;;;10.40;99.90;;;;;;450205;264;27997;-72
2023/11/06 10:38:34;;;;;;;7.70;1.80;;;10.30;99.90;;;;;;450308;261;28115;-72